createdAt,value
2018-07-31T00:01:48.140Z,22.40
2018-07-31T00:04:16.698Z,22.30
2018-07-31T00:06:45.188Z,22.20
2018-07-31T00:09:13.668Z,22.20
2018-07-31T00:11:42.208Z,22.20
2018-07-31T00:14:10.719Z,22.30
2018-07-31T00:16:39.917Z,22.20
2018-07-31T00:19:08.430Z,22.30
2018-07-31T00:24:05.132Z,22.20
2018-07-31T00:26:33.624Z,22.20
2018-07-31T00:29:02.620Z,22.20
2018-07-31T00:31:31.576Z,22.20
2018-07-31T00:34:00.529Z,22.10
2018-07-31T00:36:29.138Z,22.10
2018-07-31T00:38:57.680Z,22.10
2018-07-31T00:41:26.147Z,22.10
2018-07-31T00:43:54.783Z,22.00
2018-07-31T00:46:23.240Z,21.90
2018-07-31T00:48:52.330Z,21.90
2018-07-31T00:53:49.084Z,21.80
2018-07-31T00:58:46.124Z,21.70
2018-07-31T01:01:15.336Z,21.60
2018-07-31T01:03:43.782Z,21.60
2018-07-31T01:06:12.298Z,21.60
2018-07-31T01:08:40.780Z,21.50
2018-07-31T01:11:09.245Z,21.50
2018-07-31T01:13:37.772Z,21.40
2018-07-31T01:16:06.379Z,21.40
2018-07-31T01:18:35.017Z,21.50
2018-07-31T01:21:03.476Z,21.40
2018-07-31T01:23:32.100Z,21.50
2018-07-31T01:26:01.064Z,21.40
2018-07-31T01:28:29.796Z,21.40
2018-07-31T01:30:58.696Z,21.40
2018-07-31T01:33:27.206Z,21.40
2018-07-31T01:35:55.667Z,21.40
2018-07-31T01:38:24.160Z,21.40
2018-07-31T01:40:52.657Z,21.40
2018-07-31T01:43:21.257Z,21.30
2018-07-31T01:45:50.321Z,21.20
2018-07-31T01:48:18.873Z,21.10
2018-07-31T01:50:47.393Z,21.00
2018-07-31T01:53:15.860Z,21.10
2018-07-31T01:55:45.108Z,21.10
2018-07-31T01:58:13.826Z,21.00
2018-07-31T02:00:42.388Z,21.10
2018-07-31T02:03:10.881Z,20.90
2018-07-31T02:05:39.475Z,20.90
2018-07-31T02:08:08.022Z,20.90
2018-07-31T02:10:36.477Z,20.90
2018-07-31T02:13:04.971Z,20.90
2018-07-31T02:15:33.503Z,20.70
2018-07-31T02:18:02.399Z,20.60
2018-07-31T02:20:30.989Z,20.60
2018-07-31T02:22:59.720Z,20.60
2018-07-31T02:25:28.200Z,20.60
2018-07-31T02:27:57.155Z,20.60
2018-07-31T02:30:25.672Z,20.50
2018-07-31T02:32:54.169Z,20.50
2018-07-31T02:35:22.878Z,20.50
2018-07-31T02:37:51.456Z,20.50
2018-07-31T02:40:20.004Z,20.50
2018-07-31T02:42:48.879Z,20.40
2018-07-31T02:45:17.484Z,20.40
2018-07-31T02:47:45.985Z,20.50
2018-07-31T02:50:14.573Z,20.50
2018-07-31T02:52:43.120Z,20.50
2018-07-31T02:55:12.130Z,20.50
2018-07-31T02:57:41.798Z,20.60
2018-07-31T03:00:11.290Z,20.50
2018-07-31T03:02:39.804Z,20.50
2018-07-31T03:05:10.600Z,20.60
2018-07-31T03:07:39.107Z,20.50
2018-07-31T03:10:08.947Z,20.40
2018-07-31T03:12:37.436Z,20.40
2018-07-31T03:15:07.227Z,20.40
2018-07-31T03:17:35.826Z,20.30
2018-07-31T03:20:04.788Z,20.40
2018-07-31T03:22:33.297Z,20.40
2018-07-31T03:25:02.056Z,20.30
2018-07-31T03:27:30.621Z,20.30
2018-07-31T03:29:59.616Z,20.30
2018-07-31T03:32:28.116Z,20.30
2018-07-31T03:34:56.801Z,20.20
2018-07-31T03:37:25.941Z,20.20
2018-07-31T03:39:55.616Z,20.20
2018-07-31T03:42:24.152Z,20.20
2018-07-31T03:44:52.691Z,20.20
2018-07-31T03:47:21.575Z,20.10
2018-07-31T03:49:50.157Z,20.10
2018-07-31T03:52:18.854Z,20.10
2018-07-31T03:54:47.443Z,20.00
2018-07-31T03:57:15.987Z,20.10
2018-07-31T03:59:44.504Z,20.00
2018-07-31T04:02:12.990Z,20.00
2018-07-31T04:04:41.592Z,20.10
2018-07-31T04:07:10.103Z,20.10
2018-07-31T04:09:38.638Z,20.10
2018-07-31T04:12:07.257Z,20.00
2018-07-31T04:14:36.713Z,20.00
2018-07-31T04:17:05.314Z,20.00
2018-07-31T04:19:33.865Z,20.00
2018-07-31T04:22:03.088Z,20.10
2018-07-31T04:24:31.668Z,20.10
2018-07-31T04:27:00.160Z,20.20
2018-07-31T04:29:28.738Z,20.20
2018-07-31T04:31:57.265Z,20.20
2018-07-31T04:34:25.794Z,20.20
2018-07-31T04:36:54.310Z,20.30
2018-07-31T04:39:22.854Z,20.30
2018-07-31T04:41:51.437Z,20.30
2018-07-31T04:44:20.014Z,20.30
2018-07-31T04:46:49.644Z,20.40
2018-07-31T04:49:18.154Z,20.50
2018-07-31T04:51:46.620Z,20.60
2018-07-31T04:54:15.102Z,20.70
2018-07-31T04:56:43.623Z,20.80
2018-07-31T04:59:12.677Z,20.80
2018-07-31T05:01:41.343Z,21.00
2018-07-31T05:04:10.008Z,21.00
2018-07-31T05:06:38.580Z,21.10
2018-07-31T05:09:09.081Z,21.30
2018-07-31T05:11:38.074Z,21.40
2018-07-31T05:14:07.220Z,21.50
2018-07-31T05:16:36.030Z,21.60
2018-07-31T05:19:04.536Z,21.70
2018-07-31T05:24:01.790Z,21.90
2018-07-31T05:26:30.305Z,22.00
2018-07-31T05:28:58.961Z,22.10
2018-07-31T05:31:27.752Z,22.20
2018-07-31T05:33:56.284Z,22.30
2018-07-31T05:36:24.838Z,22.30
2018-07-31T05:38:53.365Z,22.40
2018-07-31T05:41:21.802Z,22.50
2018-07-31T05:43:50.473Z,22.60
2018-07-31T05:46:18.996Z,22.70
2018-07-31T05:48:47.501Z,22.90
2018-07-31T05:51:16.105Z,23.00
2018-07-31T05:53:44.685Z,23.20
2018-07-31T05:56:13.350Z,23.40
2018-07-31T05:58:41.914Z,23.60
2018-07-31T06:01:10.500Z,23.70
2018-07-31T06:03:39.034Z,23.90
2018-07-31T06:06:08.096Z,24.00
2018-07-31T06:08:36.564Z,24.10
2018-07-31T06:11:05.726Z,24.30
2018-07-31T06:13:34.253Z,24.30
2018-07-31T06:16:02.917Z,24.50
2018-07-31T06:18:31.384Z,24.40
2018-07-31T06:20:59.847Z,24.50
2018-07-31T06:23:28.404Z,24.60
2018-07-31T06:25:56.895Z,24.70
2018-07-31T06:28:25.423Z,24.80
2018-07-31T06:30:53.986Z,24.80
2018-07-31T06:33:23.402Z,25.20
2018-07-31T06:35:51.899Z,25.60
2018-07-31T06:38:20.430Z,26.20
2018-07-31T06:40:48.996Z,26.60
2018-07-31T06:43:17.472Z,26.70
2018-07-31T06:45:46.053Z,26.90
2018-07-31T06:48:14.663Z,27.10
2018-07-31T06:50:43.131Z,27.40
2018-07-31T06:53:12.073Z,27.80
2018-07-31T06:55:40.564Z,27.90
2018-07-31T06:58:10.113Z,28.30
2018-07-31T07:00:38.564Z,28.70
2018-07-31T07:03:07.176Z,28.70
2018-07-31T07:05:35.656Z,28.80
2018-07-31T07:08:04.541Z,28.50
2018-07-31T07:10:33.104Z,28.30
2018-07-31T07:13:01.712Z,28.10
2018-07-31T07:15:30.207Z,28.00
2018-07-31T07:17:58.783Z,27.90
2018-07-31T07:20:27.409Z,27.80
2018-07-31T07:22:55.932Z,27.80
2018-07-31T07:25:24.533Z,27.70
2018-07-31T07:27:53.192Z,27.80
2018-07-31T07:30:21.758Z,27.90
2018-07-31T07:32:50.378Z,27.80
2018-07-31T07:35:18.953Z,27.90
2018-07-31T07:37:47.437Z,28.00
2018-07-31T07:40:15.978Z,28.10
2018-07-31T07:45:12.935Z,28.20
2018-07-31T07:50:09.644Z,28.30
2018-07-31T07:52:38.576Z,28.50
2018-07-31T07:55:07.728Z,28.70
2018-07-31T07:57:36.490Z,28.80
2018-07-31T08:00:07.112Z,29.00
2018-07-31T08:02:36.077Z,29.00
2018-07-31T08:05:04.693Z,29.10
2018-07-31T08:07:33.292Z,29.00
2018-07-31T08:10:02.363Z,29.00
2018-07-31T08:12:30.951Z,28.60
2018-07-31T08:14:59.550Z,28.40
2018-07-31T08:17:28.032Z,28.30
2018-07-31T08:19:56.839Z,28.40
2018-07-31T08:22:25.292Z,28.60
2018-07-31T08:24:53.745Z,28.60
2018-07-31T08:27:22.324Z,28.60
2018-07-31T08:29:50.926Z,28.70
2018-07-31T08:32:19.428Z,28.80
2018-07-31T08:34:47.891Z,28.80
2018-07-31T08:37:16.384Z,28.80
2018-07-31T08:39:44.877Z,28.80
2018-07-31T08:42:13.356Z,28.70
2018-07-31T08:44:42.225Z,28.70
2018-07-31T08:47:10.755Z,28.80
2018-07-31T08:49:39.248Z,28.90
2018-07-31T08:52:07.816Z,28.80
2018-07-31T08:54:36.469Z,28.90
2018-07-31T08:57:05.120Z,28.90
2018-07-31T08:59:33.578Z,28.70
2018-07-31T09:02:02.098Z,28.70
2018-07-31T09:04:30.790Z,28.50
2018-07-31T09:06:59.480Z,28.60
2018-07-31T09:09:28.026Z,28.60
2018-07-31T09:11:56.532Z,28.70
2018-07-31T09:14:25.078Z,28.80
2018-07-31T09:16:53.647Z,28.90
2018-07-31T09:19:22.183Z,29.10
2018-07-31T09:21:50.802Z,29.10
2018-07-31T09:26:47.513Z,29.30
2018-07-31T09:29:16.645Z,29.50
2018-07-31T09:31:45.204Z,29.50
2018-07-31T09:34:13.723Z,29.50
2018-07-31T09:39:12.667Z,29.60
2018-07-31T09:41:41.293Z,29.50
2018-07-31T09:44:10.056Z,29.50
2018-07-31T09:46:38.524Z,29.50
2018-07-31T09:49:07.032Z,29.40
2018-07-31T09:51:35.624Z,29.30
2018-07-31T09:54:04.143Z,29.20
2018-07-31T09:56:32.722Z,29.30
2018-07-31T09:59:01.268Z,29.20
2018-07-31T10:01:29.732Z,29.00
2018-07-31T10:03:58.184Z,29.00
2018-07-31T10:06:26.700Z,28.90
2018-07-31T10:08:55.651Z,29.00
2018-07-31T10:11:24.152Z,28.90
2018-07-31T10:13:52.670Z,29.00
2018-07-31T10:16:21.349Z,29.00
2018-07-31T10:18:49.917Z,28.80
2018-07-31T10:21:18.408Z,28.80
2018-07-31T10:26:15.109Z,28.60
2018-07-31T10:28:43.901Z,28.50
2018-07-31T10:31:12.397Z,28.50
2018-07-31T10:33:40.926Z,28.60
2018-07-31T10:36:15.762Z,28.70
2018-07-31T10:38:44.278Z,28.80
2018-07-31T10:41:12.913Z,28.90
2018-07-31T10:46:10.718Z,29.00
2018-07-31T10:48:39.712Z,29.10
2018-07-31T10:51:08.286Z,29.10
2018-07-31T10:53:36.807Z,29.10
2018-07-31T10:56:05.823Z,29.10
2018-07-31T10:58:34.428Z,29.10
2018-07-31T11:01:03.101Z,29.30
2018-07-31T11:03:31.628Z,29.60
2018-07-31T11:06:00.082Z,29.80
2018-07-31T11:08:28.600Z,29.60
2018-07-31T11:10:57.057Z,29.50
2018-07-31T11:13:25.628Z,29.40
2018-07-31T11:15:54.264Z,29.40
2018-07-31T11:18:23.507Z,29.20
2018-07-31T11:20:52.083Z,29.20
2018-07-31T11:23:20.522Z,29.20
2018-07-31T11:25:49.068Z,29.10
2018-07-31T11:28:17.568Z,29.20
2018-07-31T11:30:46.103Z,29.30
2018-07-31T11:33:14.729Z,29.40
2018-07-31T11:35:43.249Z,29.40
2018-07-31T11:38:11.772Z,29.40
2018-07-31T11:40:40.317Z,29.20
2018-07-31T11:43:08.979Z,29.10
2018-07-31T11:45:38.123Z,29.10
2018-07-31T11:48:06.576Z,28.90
2018-07-31T11:50:35.097Z,29.20
2018-07-31T11:53:03.584Z,29.40
2018-07-31T11:55:32.484Z,29.50
2018-07-31T11:58:01.069Z,29.50
2018-07-31T12:00:29.657Z,29.50
2018-07-31T12:02:58.466Z,29.60
2018-07-31T12:05:27.795Z,29.50
2018-07-31T12:07:56.450Z,29.30
2018-07-31T12:10:24.976Z,29.50
2018-07-31T12:12:53.470Z,29.70
2018-07-31T12:15:21.980Z,29.90
2018-07-31T12:17:50.908Z,29.90
2018-07-31T12:20:19.512Z,29.80
2018-07-31T12:22:48.167Z,29.70
2018-07-31T12:25:16.704Z,29.60
2018-07-31T12:27:45.173Z,29.60
2018-07-31T12:30:13.863Z,29.80
2018-07-31T12:32:42.423Z,29.90
2018-07-31T12:35:11.591Z,30.00
2018-07-31T12:37:40.164Z,29.90
2018-07-31T12:40:08.810Z,29.70
2018-07-31T12:42:37.260Z,29.60
2018-07-31T12:45:05.801Z,29.70
2018-07-31T12:47:34.605Z,29.80
2018-07-31T12:50:03.230Z,30.00
2018-07-31T12:52:32.296Z,30.10
2018-07-31T12:55:01.042Z,30.20
2018-07-31T12:57:30.231Z,30.40
2018-07-31T12:59:59.636Z,30.50
2018-07-31T13:04:56.316Z,30.30
2018-07-31T13:07:24.789Z,30.50
2018-07-31T13:09:53.277Z,30.60
2018-07-31T13:12:21.804Z,30.60
2018-07-31T13:14:50.281Z,30.60
2018-07-31T13:17:18.960Z,30.80
2018-07-31T13:19:47.629Z,30.80
2018-07-31T13:22:16.140Z,31.00
2018-07-31T13:24:44.600Z,31.10
2018-07-31T13:27:13.129Z,31.20
2018-07-31T13:29:41.621Z,31.20
2018-07-31T13:32:10.106Z,31.10
2018-07-31T13:34:38.623Z,31.10
2018-07-31T13:37:07.213Z,31.10
2018-07-31T13:39:35.655Z,31.10
2018-07-31T13:42:04.280Z,31.00
2018-07-31T13:44:32.794Z,30.90
2018-07-31T13:47:01.264Z,30.80
2018-07-31T13:49:29.828Z,30.80
2018-07-31T13:54:26.696Z,30.60
2018-07-31T13:56:55.212Z,30.60
2018-07-31T13:59:23.713Z,30.50
2018-07-31T14:01:52.197Z,30.50
2018-07-31T14:04:20.670Z,30.50
2018-07-31T14:06:49.244Z,30.50
2018-07-31T14:09:17.684Z,30.30
2018-07-31T14:11:46.185Z,30.30
2018-07-31T14:14:14.688Z,30.20
2018-07-31T14:16:43.168Z,30.30
2018-07-31T14:19:11.689Z,30.20
2018-07-31T14:21:40.169Z,30.00
2018-07-31T14:24:09.148Z,29.90
2018-07-31T14:26:38.296Z,30.00
2018-07-31T14:29:06.843Z,30.10
2018-07-31T14:31:35.351Z,30.20
2018-07-31T14:34:03.992Z,30.30
2018-07-31T14:36:32.496Z,30.00
2018-07-31T14:39:00.953Z,30.00
2018-07-31T14:41:29.473Z,30.20
2018-07-31T14:43:58.001Z,30.30
2018-07-31T14:46:26.500Z,30.30
2018-07-31T14:48:54.965Z,30.20
2018-07-31T14:51:23.455Z,30.20
2018-07-31T14:53:51.972Z,30.30
2018-07-31T14:56:20.524Z,30.20
2018-07-31T14:58:49.020Z,30.20
2018-07-31T15:01:17.518Z,30.20
2018-07-31T15:03:46.097Z,30.30
2018-07-31T15:06:14.580Z,30.30
2018-07-31T15:08:43.435Z,30.20
2018-07-31T15:11:12.015Z,30.00
2018-07-31T15:13:40.646Z,30.10
2018-07-31T15:16:09.153Z,30.20
2018-07-31T15:18:37.620Z,30.20
2018-07-31T15:21:06.987Z,30.30
2018-07-31T15:23:35.482Z,30.20
2018-07-31T15:26:03.967Z,30.10
2018-07-31T15:28:32.483Z,30.10
2018-07-31T15:31:00.951Z,30.20
2018-07-31T15:33:29.456Z,30.30
2018-07-31T15:35:57.949Z,30.30
2018-07-31T15:38:26.536Z,30.30
2018-07-31T15:40:55.064Z,30.30
2018-07-31T15:43:23.532Z,30.20
2018-07-31T15:45:52.160Z,30.30
2018-07-31T15:48:20.656Z,30.20
2018-07-31T15:50:49.134Z,30.10
2018-07-31T15:53:17.631Z,30.10
2018-07-31T15:55:46.444Z,30.00
2018-07-31T15:58:14.903Z,30.10
2018-07-31T16:00:43.379Z,30.20
2018-07-31T16:03:11.845Z,30.20
2018-07-31T16:05:40.393Z,30.20
2018-07-31T16:08:08.896Z,30.10
2018-07-31T16:10:37.373Z,30.00
2018-07-31T16:13:06.308Z,30.00
2018-07-31T16:15:34.885Z,30.00
2018-07-31T16:18:03.372Z,29.90
2018-07-31T16:20:31.858Z,30.00
2018-07-31T16:23:00.405Z,30.00
2018-07-31T16:25:28.851Z,29.90
2018-07-31T16:27:57.713Z,29.90
2018-07-31T16:30:26.241Z,29.90
2018-07-31T16:32:54.766Z,29.90
2018-07-31T16:35:23.248Z,29.90
2018-07-31T16:37:51.754Z,29.80
2018-07-31T16:40:20.265Z,29.80
2018-07-31T16:42:48.774Z,29.60
2018-07-31T16:45:17.280Z,29.50
2018-07-31T16:47:45.716Z,29.40
2018-07-31T16:50:14.241Z,29.40
2018-07-31T16:52:42.723Z,29.40
2018-07-31T16:55:11.205Z,29.40
2018-07-31T16:57:39.730Z,29.40
2018-07-31T17:00:09.165Z,29.20
2018-07-31T17:02:37.664Z,29.20
2018-07-31T17:05:06.194Z,29.10
2018-07-31T17:07:34.808Z,29.10
2018-07-31T17:10:03.324Z,29.10
2018-07-31T17:15:00.228Z,29.00
2018-07-31T17:17:28.739Z,28.90
2018-07-31T17:19:57.229Z,28.90
2018-07-31T17:22:25.798Z,28.90
2018-07-31T17:24:54.717Z,28.90
2018-07-31T17:27:23.212Z,28.80
2018-07-31T17:29:51.701Z,28.70
2018-07-31T17:32:20.192Z,28.70
2018-07-31T17:34:48.713Z,28.70
2018-07-31T17:37:17.200Z,28.70
2018-07-31T17:39:45.689Z,28.60
2018-07-31T17:42:14.484Z,28.60
2018-07-31T17:44:43.124Z,28.70
2018-07-31T17:47:11.745Z,28.60
2018-07-31T17:49:40.733Z,28.50
2018-07-31T17:52:09.213Z,28.40
2018-07-31T17:54:37.773Z,28.30
2018-07-31T17:57:06.699Z,28.30
2018-07-31T17:59:35.244Z,28.20
2018-07-31T18:02:03.878Z,28.10
2018-07-31T18:04:32.739Z,28.00
2018-07-31T18:07:01.383Z,27.90
2018-07-31T18:09:29.896Z,27.90
2018-07-31T18:11:58.383Z,27.90
2018-07-31T18:14:26.926Z,27.80
2018-07-31T18:16:55.448Z,27.70
2018-07-31T18:19:24.121Z,27.70
2018-07-31T18:21:52.717Z,27.60
2018-07-31T18:26:50.436Z,27.50
2018-07-31T18:29:19.150Z,27.50
2018-07-31T18:31:47.735Z,27.40
2018-07-31T18:34:16.428Z,27.40
2018-07-31T18:36:44.928Z,27.30
2018-07-31T18:39:14.208Z,27.30
2018-07-31T18:41:42.950Z,27.30
2018-07-31T18:44:11.823Z,27.30
2018-07-31T18:46:40.603Z,27.20
2018-07-31T18:49:09.542Z,27.20
2018-07-31T18:51:38.092Z,27.20
2018-07-31T18:54:06.650Z,27.20
2018-07-31T18:59:03.304Z,27.10
2018-07-31T19:01:31.975Z,27.00
2018-07-31T19:04:00.577Z,27.00
2018-07-31T19:06:29.087Z,27.00
2018-07-31T19:08:57.741Z,26.90
2018-07-31T19:11:26.237Z,26.90
2018-07-31T19:13:54.900Z,26.80
2018-07-31T19:16:23.414Z,26.70
2018-07-31T19:18:51.847Z,26.60
2018-07-31T19:21:21.277Z,26.60
2018-07-31T19:23:49.767Z,26.50
2018-07-31T19:26:18.523Z,26.50
2018-07-31T19:28:47.044Z,26.40
2018-07-31T19:31:15.497Z,26.30
2018-07-31T19:33:44.036Z,26.20
2018-07-31T19:36:12.666Z,26.30
2018-07-31T19:38:41.500Z,26.30
2018-07-31T19:41:10.122Z,26.20
2018-07-31T19:43:38.604Z,26.10
2018-07-31T19:46:07.179Z,25.90
2018-07-31T19:48:35.734Z,25.70
2018-07-31T19:51:04.330Z,25.60
2018-07-31T19:53:32.889Z,25.40
2018-07-31T19:56:01.385Z,25.30
2018-07-31T19:58:29.901Z,25.30
2018-07-31T20:00:59.005Z,25.20
2018-07-31T20:03:27.769Z,25.20
2018-07-31T20:05:56.324Z,25.10
2018-07-31T20:08:24.981Z,25.10
2018-07-31T20:10:53.490Z,25.00
2018-07-31T20:13:22.352Z,25.00
2018-07-31T20:15:50.908Z,24.90
2018-07-31T20:18:19.448Z,24.90
2018-07-31T20:20:48.148Z,24.80
2018-07-31T20:23:16.628Z,24.70
2018-07-31T20:25:45.130Z,24.70
2018-07-31T20:28:14.064Z,24.80
2018-07-31T20:30:42.620Z,24.70
2018-07-31T20:33:11.353Z,24.70
2018-07-31T20:35:39.840Z,24.60
2018-07-31T20:38:08.429Z,24.50
2018-07-31T20:40:36.892Z,24.50
2018-07-31T20:43:05.564Z,24.40
2018-07-31T20:45:34.531Z,24.30
2018-07-31T20:48:03.363Z,24.30
2018-07-31T20:50:31.966Z,24.30
2018-07-31T20:53:00.512Z,24.20
2018-07-31T20:55:29.023Z,24.10
2018-07-31T20:57:57.672Z,24.10
2018-07-31T21:00:26.229Z,24.00
2018-07-31T21:02:54.778Z,23.90
2018-07-31T21:05:23.296Z,23.90
2018-07-31T21:07:51.808Z,23.90
2018-07-31T21:10:20.348Z,23.70
2018-07-31T21:12:48.968Z,23.60
2018-07-31T21:15:17.464Z,23.70
2018-07-31T21:17:47.365Z,23.60
2018-07-31T21:25:12.341Z,23.50
2018-07-31T21:27:41.753Z,23.50
2018-07-31T21:30:10.253Z,23.50
2018-07-31T21:32:38.839Z,23.50
2018-07-31T21:35:07.451Z,23.40
2018-07-31T21:37:35.955Z,23.20
2018-07-31T21:40:05.371Z,23.20
2018-07-31T21:42:33.955Z,23.20
2018-07-31T21:45:02.525Z,23.20
2018-07-31T21:47:31.060Z,23.10
2018-07-31T21:50:00.098Z,23.10
2018-07-31T21:52:28.635Z,23.20
2018-07-31T21:54:57.291Z,23.20
2018-07-31T21:57:25.754Z,23.10
2018-07-31T21:59:54.308Z,23.10
2018-07-31T22:02:23.299Z,22.90
2018-07-31T22:04:52.025Z,22.70
2018-07-31T22:07:21.519Z,22.70
2018-07-31T22:09:50.242Z,22.70
2018-07-31T22:12:19.524Z,22.60
2018-07-31T22:14:48.116Z,22.60
2018-07-31T22:17:16.639Z,22.60
2018-07-31T22:19:45.181Z,22.60
2018-07-31T22:22:13.649Z,22.40
2018-07-31T22:24:42.505Z,22.30
2018-07-31T22:27:10.955Z,22.30
2018-07-31T22:29:39.543Z,22.20
2018-07-31T22:32:08.088Z,22.20
2018-07-31T22:37:04.937Z,22.20
2018-07-31T22:39:33.489Z,22.20
2018-07-31T22:42:02.084Z,22.10
2018-07-31T22:44:30.555Z,22.00
2018-07-31T22:46:59.041Z,22.00
2018-07-31T22:49:27.627Z,21.80
2018-07-31T22:51:56.512Z,21.80
2018-07-31T22:54:25.208Z,21.80
2018-07-31T22:56:53.749Z,21.80
2018-07-31T22:59:22.233Z,21.80
2018-07-31T23:01:50.844Z,21.80
2018-07-31T23:04:19.344Z,21.80
2018-07-31T23:06:47.841Z,21.80
2018-07-31T23:09:16.372Z,21.80
2018-07-31T23:11:44.875Z,21.50
2018-07-31T23:14:13.970Z,21.40
2018-07-31T23:16:42.462Z,21.40
2018-07-31T23:19:10.988Z,21.30
2018-07-31T23:21:39.512Z,21.30
2018-07-31T23:24:08.057Z,21.30
2018-07-31T23:26:36.544Z,21.30
2018-07-31T23:29:05.020Z,21.30
2018-07-31T23:31:33.686Z,21.30
2018-07-31T23:34:02.172Z,21.30
2018-07-31T23:36:30.770Z,21.30
2018-07-31T23:38:59.324Z,21.40
2018-07-31T23:41:27.811Z,21.30
2018-07-31T23:43:56.701Z,21.20
2018-07-31T23:46:25.380Z,21.10
2018-07-31T23:48:53.933Z,21.10
2018-07-31T23:51:22.610Z,21.10
2018-07-31T23:53:51.135Z,21.00
2018-07-31T23:56:19.636Z,20.90
2018-07-31T23:58:48.218Z,21.00
